Time;durP1;ratioP1;P1;durP2;ratioP2;P2;SDS_P1;SDS_P2;PMS_P1;PMS_P2;Temp;Humidity;BMP_temperature;BMP_pressure;BME280_temperature;BME280_humidity;BME280_pressure;Samples;Min_cycle;Max_cycle;Signal;HPM_P1;HPM_P2
2022/06/13 00:02:11;;;;;;;6.63;6.00;;;17.20;99.90;;;;;;4937184;28;20687;-87
2022/06/13 00:04:37;;;;;;;6.50;6.00;;;17.30;99.90;;;;;;4946077;28;20245;-89
2022/06/13 00:07:04;;;;;;;6.63;6.10;;;17.30;99.90;;;;;;4937410;28;20236;-89
2022/06/13 00:09:30;;;;;;;9.43;6.17;;;17.30;99.90;;;;;;4934411;28;20433;-89
2022/06/13 00:11:56;;;;;;;8.00;6.60;;;17.30;99.90;;;;;;4940882;28;20811;-88
2022/06/13 00:14:22;;;;;;;6.77;6.23;;;17.20;99.90;;;;;;4945921;28;20186;-88
2022/06/13 00:16:47;;;;;;;6.90;6.30;;;17.30;99.90;;;;;;4939369;28;20441;-89
2022/06/13 00:19:13;;;;;;;5.60;5.20;;;17.30;99.90;;;;;;4954891;28;20206;-88
2022/06/13 00:21:39;;;;;;;6.83;6.20;;;17.30;99.90;;;;;;4938544;28;20206;-88
2022/06/13 00:24:07;;;;;;;6.57;6.07;;;17.40;99.90;;;;;;4941570;28;20621;-88
2022/06/13 00:26:34;;;;;;;6.70;6.10;;;17.40;99.90;;;;;;4940488;28;20222;-88
2022/06/13 00:29:00;;;;;;;7.40;6.37;;;17.30;99.90;;;;;;4950172;28;20677;-90
2022/06/13 00:31:26;;;;;;;7.90;7.17;;;17.20;99.90;;;;;;4946748;28;20449;-89
2022/06/13 00:33:52;;;;;;;7.73;6.97;;;17.10;99.90;;;;;;4941353;28;20185;-89
2022/06/13 00:36:21;;;;;;;6.67;6.07;;;17.20;99.90;;;;;;4938514;28;20461;-89
2022/06/13 00:38:48;;;;;;;6.83;6.20;;;17.30;99.90;;;;;;4962382;28;20469;-88
2022/06/13 00:41:23;;;;;;;6.87;6.17;;;17.30;99.90;;;;;;4947629;28;20480;-88
2022/06/13 00:43:55;;;;;;;6.63;5.63;;;17.30;99.90;;;;;;4947341;28;20445;-90
2022/06/13 00:46:22;;;;;;;6.73;6.23;;;17.30;99.90;;;;;;4950985;28;20473;-88
2022/06/13 00:48:52;;;;;;;6.43;5.73;;;17.30;99.90;;;;;;4945324;28;21244;-89
2022/06/13 00:51:18;;;;;;;6.90;6.37;;;17.30;99.90;;;;;;4961794;28;20465;-89
2022/06/13 00:54:00;;;;;;;7.53;6.93;;;17.20;99.90;;;;;;4939167;28;20437;-89
2022/06/13 00:56:31;;;;;;;7.60;6.97;;;17.20;99.90;;;;;;4940091;28;21068;-88
2022/06/13 00:59:00;;;;;;;7.20;6.60;;;17.20;99.90;;;;;;4944918;28;20186;-89
2022/06/13 01:01:28;;;;;;;8.90;8.00;;;17.20;99.90;;;;;;4963036;28;20442;-89
2022/06/13 01:03:56;;;;;;;9.13;8.23;;;17.30;99.90;;;;;;4962936;28;20449;-89
2022/06/13 01:06:22;;;;;;;10.10;9.13;;;17.20;99.90;;;;;;4945138;28;20481;-89
2022/06/13 01:08:47;;;;;;;8.60;7.87;;;17.20;99.90;;;;;;4933823;28;21902;-88
2022/06/13 01:11:17;;;;;;;10.97;9.97;;;17.20;99.90;;;;;;4959918;28;21227;-89
2022/06/13 01:14:11;;;;;;;11.00;10.03;;;17.20;99.90;;;;;;4940986;28;20714;-90
2022/06/13 01:17:07;;;;;;;10.50;9.70;;;17.20;99.90;;;;;;4946814;28;20445;-89
2022/06/13 01:20:02;;;;;;;10.90;9.80;;;17.20;99.90;;;;;;4957291;28;20465;-90
2022/06/13 01:22:56;;;;;;;9.50;8.70;;;17.20;99.90;;;;;;4941674;28;20475;-89
2022/06/13 01:26:08;;;;;;;8.57;7.87;;;17.20;99.90;;;;;;4954943;28;20880;-89
2022/06/13 01:29:19;;;;;;;9.40;8.50;;;17.20;99.90;;;;;;4959663;28;20434;-88
2022/06/13 01:31:53;;;;;;;9.60;8.60;;;17.20;99.90;;;;;;4961702;28;20438;-90
2022/06/13 01:34:46;;;;;;;9.30;8.60;;;17.10;99.90;;;;;;4962963;28;20449;-90
2022/06/13 01:37:17;;;;;;;9.00;8.10;;;17.20;99.90;;;;;;4941179;28;20496;-89
2022/06/13 01:40:02;;;;;;;8.83;7.93;;;17.10;99.90;;;;;;4957713;28;20445;-89
2022/06/13 01:42:49;;;;;;;8.60;7.90;;;17.10;99.90;;;;;;4936234;28;20452;-88
2022/06/13 01:45:40;;;;;;;9.87;8.50;;;17.10;99.90;;;;;;4958250;28;20473;-89
2022/06/13 01:48:27;;;;;;;9.00;8.30;;;17.10;99.90;;;;;;4950571;28;21919;-89
2022/06/13 01:51:19;;;;;;;8.47;7.80;;;17.10;99.90;;;;;;4948452;28;20446;-89
2022/06/13 01:54:27;;;;;;;8.17;7.50;;;17.10;99.90;;;;;;4937077;28;20449;-90
2022/06/13 01:56:55;;;;;;;9.03;7.00;;;17.10;99.90;;;;;;4939699;28;20449;-89
2022/06/13 01:59:36;;;;;;;6.53;6.03;;;17.00;99.90;;;;;;4938520;28;20509;-88
2022/06/13 02:02:21;;;;;;;6.60;6.03;;;17.00;99.90;;;;;;4939008;28;21368;-88
2022/06/13 02:05:00;;;;;;;6.50;5.90;;;17.00;99.90;;;;;;4949076;28;20438;-88
2022/06/13 02:07:39;;;;;;;6.00;5.60;;;17.00;99.90;;;;;;4958144;28;20457;-88
2022/06/13 02:10:10;;;;;;;6.40;6.00;;;16.90;99.90;;;;;;4939192;28;21111;-87
2022/06/13 02:12:36;;;;;;;5.60;5.20;;;17.00;99.90;;;;;;4941478;28;21014;-87
2022/06/13 02:15:14;;;;;;;6.00;5.60;;;17.00;99.90;;;;;;4949516;28;20449;-88
2022/06/13 02:17:49;;;;;;;5.27;4.90;;;17.00;99.90;;;;;;4939196;28;21977;-87
2022/06/13 02:20:23;;;;;;;5.90;5.37;;;17.00;99.90;;;;;;4955527;28;20448;-87
2022/06/13 02:22:58;;;;;;;5.83;5.07;;;17.00;99.90;;;;;;4942581;28;20536;-88
2022/06/13 02:25:28;;;;;;;6.20;5.60;;;17.00;99.90;;;;;;4940022;28;20536;-88
2022/06/13 02:28:09;;;;;;;4.77;4.47;;;17.00;99.90;;;;;;4940752;28;20441;-88
2022/06/13 02:30:51;;;;;;;6.57;5.93;;;17.10;99.90;;;;;;4944796;28;21043;-88
2022/06/13 02:33:25;;;;;;;6.27;5.77;;;17.00;99.90;;;;;;4937633;28;20441;-88
2022/06/13 02:36:10;;;;;;;6.20;5.67;;;17.00;99.90;;;;;;4951380;28;20445;-88
2022/06/13 02:38:43;;;;;;;6.43;5.83;;;17.10;99.90;;;;;;4938617;28;20785;-91
2022/06/13 02:41:15;;;;;;;6.10;5.50;;;17.00;99.90;;;;;;4946609;28;20454;-88
2022/06/13 02:43:52;;;;;;;6.10;5.60;;;17.10;99.90;;;;;;4939374;28;20469;-88
2022/06/13 02:46:28;;;;;;;6.73;6.10;;;17.10;99.90;;;;;;4941799;28;20488;-88
2022/06/13 02:49:09;;;;;;;5.77;5.27;;;17.10;99.90;;;;;;4957728;28;21133;-88
2022/06/13 02:51:55;;;;;;;7.33;6.13;;;17.20;99.90;;;;;;4965098;28;20441;-89
2022/06/13 02:54:40;;;;;;;5.70;5.20;;;17.30;99.90;;;;;;4956070;28;20437;-88
2022/06/13 02:57:46;;;;;;;5.67;5.27;;;17.30;99.90;;;;;;4942007;28;20468;-88
2022/06/13 03:00:20;;;;;;;6.23;5.77;;;17.20;99.90;;;;;;4920760;28;20483;-88
2022/06/13 03:03:04;;;;;;;7.30;6.60;;;17.20;99.90;;;;;;4971456;28;20487;-89
2022/06/13 03:05:45;;;;;;;6.57;5.70;;;17.20;99.90;;;;;;4966338;28;20484;-89
2022/06/13 03:08:27;;;;;;;6.77;6.10;;;17.20;99.90;;;;;;4941366;28;20487;-89
2022/06/13 03:11:24;;;;;;;6.77;6.27;;;17.30;99.90;;;;;;4955689;28;20450;-89
2022/06/13 03:14:27;;;;;;;5.80;5.20;;;17.20;99.90;;;;;;4958960;28;20446;-89
2022/06/13 03:17:16;;;;;;;6.50;5.87;;;17.30;99.90;;;;;;4941232;28;20453;-91
2022/06/13 03:19:56;;;;;;;7.57;6.27;;;17.20;99.90;;;;;;4960276;28;20457;-90
2022/06/13 03:22:46;;;;;;;7.20;6.57;;;17.30;99.90;;;;;;4945729;28;20533;-89
2022/06/13 03:25:20;;;;;;;6.43;5.93;;;17.30;99.90;;;;;;4940745;28;20784;-89
2022/06/13 03:27:54;;;;;;;6.90;6.30;;;17.30;99.90;;;;;;4961536;28;20450;-89
2022/06/13 03:30:23;;;;;;;6.70;6.20;;;17.30;99.90;;;;;;4951895;28;20443;-90
2022/06/13 03:35:38;;;;;;;5.50;5.10;;;17.30;99.90;;;;;;4958447;28;20433;-91
2022/06/13 03:38:08;;;;;;;5.87;5.47;;;17.20;99.90;;;;;;4958023;28;20975;-90
2022/06/13 03:40:38;;;;;;;6.20;4.87;;;17.00;99.90;;;;;;4956808;28;20442;-92
2022/06/13 03:43:11;;;;;;;5.60;4.70;;;17.00;99.90;;;;;;4952601;28;20978;-89
2022/06/13 03:45:41;;;;;;;5.97;4.43;;;17.00;99.90;;;;;;4948022;28;20496;-88
2022/06/13 03:48:32;;;;;;;5.83;4.57;;;16.90;99.90;;;;;;4945392;28;20491;-90
2022/06/13 03:51:05;;;;;;;5.80;5.30;;;16.90;99.90;;;;;;4945424;28;21225;-91
2022/06/13 03:53:47;;;;;;;7.13;5.13;;;16.90;99.90;;;;;;4964668;28;20436;-92
2022/06/13 03:56:37;;;;;;;4.47;4.03;;;16.90;99.90;;;;;;4943195;28;20476;-89
2022/06/13 03:59:14;;;;;;;5.77;4.40;;;16.80;99.90;;;;;;4958446;28;20477;-90
2022/06/13 04:02:16;;;;;;;5.10;4.13;;;16.90;99.90;;;;;;4941008;28;22634;-91
2022/06/13 04:04:55;;;;;;;4.60;3.60;;;16.90;99.90;;;;;;4943158;28;20460;-88
2022/06/13 04:07:23;;;;;;;4.90;4.07;;;16.80;99.90;;;;;;4944604;28;20508;-88
2022/06/13 04:09:58;;;;;;;4.13;3.73;;;16.60;99.90;;;;;;4955593;28;20445;-89
2022/06/13 04:12:53;;;;;;;4.73;4.33;;;16.60;99.90;;;;;;4945605;28;20457;-90
2022/06/13 04:15:36;;;;;;;7.30;4.20;;;16.60;99.90;;;;;;4943096;28;20528;-89
2022/06/13 04:19:06;;;;;;;9.47;3.97;;;16.60;99.90;;;;;;4942732;28;20492;-89
2022/06/13 04:21:50;;;;;;;5.20;3.93;;;16.60;99.90;;;;;;4893873;29;20435;-89
2022/06/13 04:24:55;;;;;;;5.10;3.87;;;16.60;99.90;;;;;;4945834;28;20976;-88
2022/06/13 04:28:08;;;;;;;5.70;4.43;;;16.60;99.90;;;;;;4958489;28;21366;-88
2022/06/13 04:30:40;;;;;;;6.13;4.30;;;16.60;99.90;;;;;;4941787;28;20453;-88
2022/06/13 04:33:15;;;;;;;4.63;3.70;;;16.70;99.90;;;;;;4943631;28;20445;-91
2022/06/13 04:35:41;;;;;;;7.00;3.93;;;16.70;99.90;;;;;;4944247;28;20451;-91
2022/06/13 04:38:10;;;;;;;8.83;4.37;;;16.70;99.90;;;;;;4945043;28;20438;-91
2022/06/13 04:40:41;;;;;;;6.87;4.67;;;16.70;99.90;;;;;;4946986;28;20456;-90
2022/06/13 04:43:10;;;;;;;5.00;4.10;;;16.60;99.90;;;;;;4961279;28;20796;-90
2022/06/13 04:46:05;;;;;;;4.13;3.83;;;16.60;99.90;;;;;;4943234;28;20496;-91
2022/06/13 04:48:34;;;;;;;5.10;3.73;;;16.70;99.90;;;;;;4938721;28;20888;-90
2022/06/13 04:51:28;;;;;;;7.80;4.60;;;16.70;99.90;;;;;;4940879;28;21154;-89
2022/06/13 04:54:09;;;;;;;9.50;3.90;;;16.80;99.90;;;;;;4948856;28;20446;-90
2022/06/13 04:56:35;;;;;;;8.87;4.30;;;16.80;99.90;;;;;;4940071;28;20438;-90
2022/06/13 04:59:02;;;;;;;4.80;3.30;;;16.80;99.90;;;;;;4946440;28;20457;-89
2022/06/13 05:01:33;;;;;;;4.77;3.53;;;16.70;99.90;;;;;;4950601;28;20771;-90
2022/06/13 05:04:04;;;;;;;6.30;3.63;;;16.70;99.90;;;;;;4934499;28;21356;-88
2022/06/13 05:06:47;;;;;;;6.43;3.83;;;16.60;99.90;;;;;;4950040;28;20907;-88
2022/06/13 05:09:41;;;;;;;4.03;3.63;;;16.40;99.90;;;;;;4937431;28;21976;-90
2022/06/13 05:12:23;;;;;;;4.50;3.93;;;16.40;99.90;;;;;;4935519;28;21224;-91
2022/06/13 05:14:59;;;;;;;4.70;3.43;;;16.50;99.90;;;;;;4943048;28;20453;-91
2022/06/13 05:17:50;;;;;;;8.60;4.00;;;16.50;99.90;;;;;;4938245;28;20445;-91
2022/06/13 05:20:40;;;;;;;7.63;4.27;;;16.50;99.90;;;;;;4938936;28;20810;-91
2022/06/13 05:23:40;;;;;;;4.33;3.30;;;16.40;99.90;;;;;;4960109;28;20476;-90
2022/06/13 05:26:09;;;;;;;6.13;3.97;;;16.30;99.90;;;;;;4946145;28;20808;-89
2022/06/13 05:28:35;;;;;;;8.23;4.63;;;16.10;99.90;;;;;;4942200;28;20450;-90
2022/06/13 05:31:18;;;;;;;5.20;4.67;;;16.10;99.90;;;;;;4943266;28;21080;-90
2022/06/13 05:33:45;;;;;;;6.90;4.67;;;16.20;99.90;;;;;;4943677;28;20449;-89
2022/06/13 05:36:14;;;;;;;7.53;4.20;;;16.00;99.90;;;;;;4947570;28;20458;-90
2022/06/13 05:38:47;;;;;;;6.50;4.13;;;16.10;99.90;;;;;;4954698;28;20776;-90
2022/06/13 05:41:13;;;;;;;6.00;4.17;;;16.10;99.90;;;;;;4945065;28;21508;-88
2022/06/13 05:43:39;;;;;;;5.00;4.37;;;16.10;99.90;;;;;;4940492;28;20437;-89
2022/06/13 05:46:06;;;;;;;6.40;4.30;;;16.20;99.90;;;;;;4943289;28;20214;-89
2022/06/13 05:48:35;;;;;;;7.70;4.67;;;16.30;99.90;;;;;;4949534;28;20273;-88
2022/06/13 05:51:01;;;;;;;10.70;4.43;;;16.20;99.90;;;;;;4938881;28;20793;-88
2022/06/13 05:53:27;;;;;;;6.83;3.77;;;16.20;99.90;;;;;;4938314;28;21280;-90
2022/06/13 05:55:59;;;;;;;5.47;4.13;;;16.20;99.90;;;;;;4944674;28;20189;-90
2022/06/13 05:58:29;;;;;;;7.97;4.70;;;16.20;99.90;;;;;;4956226;28;20446;-91
2022/06/13 06:00:57;;;;;;;5.83;4.30;;;16.30;99.90;;;;;;4954735;28;20512;-90
2022/06/13 06:03:25;;;;;;;5.63;3.80;;;16.30;99.90;;;;;;4933498;28;20446;-90
2022/06/13 06:05:55;;;;;;;7.73;3.93;;;16.40;99.90;;;;;;4936288;28;21876;-90
2022/06/13 06:08:27;;;;;;;5.40;4.20;;;16.40;99.90;;;;;;4939272;28;20441;-90
2022/06/13 06:10:56;;;;;;;5.07;3.90;;;16.40;99.90;;;;;;4969004;28;20450;-89
2022/06/13 06:13:23;;;;;;;4.43;3.93;;;16.40;99.90;;;;;;4946371;28;20435;-93
2022/06/13 06:15:49;;;;;;;9.87;5.13;;;16.40;99.90;;;;;;4936407;28;20461;-87
2022/06/13 06:18:17;;;;;;;8.63;4.40;;;16.50;99.90;;;;;;4957186;28;20469;-90
2022/06/13 06:20:43;;;;;;;6.30;4.30;;;16.70;99.90;;;;;;4941747;28;20460;-91
2022/06/13 06:23:09;;;;;;;6.50;4.47;;;16.60;99.90;;;;;;4934277;28;20465;-87
2022/06/13 06:25:35;;;;;;;5.20;4.27;;;16.60;99.90;;;;;;4944245;28;20461;-87
2022/06/13 06:28:01;;;;;;;9.20;4.30;;;16.60;99.90;;;;;;4934498;28;20456;-88
2022/06/13 06:30:27;;;;;;;5.77;4.20;;;16.70;99.90;;;;;;4940676;28;20529;-89
2022/06/13 06:32:57;;;;;;;5.00;4.40;;;16.70;99.90;;;;;;4941800;28;20446;-89
2022/06/13 06:35:24;;;;;;;4.80;3.73;;;16.70;99.90;;;;;;4955993;28;20437;-88
2022/06/13 06:37:55;;;;;;;5.53;4.00;;;16.70;99.90;;;;;;4959606;28;20445;-90
2022/06/13 06:40:24;;;;;;;7.90;4.43;;;16.90;99.90;;;;;;4939887;28;20870;-89
2022/06/13 06:42:50;;;;;;;5.73;3.40;;;16.90;99.90;;;;;;4936654;28;20445;-89
2022/06/13 06:45:17;;;;;;;7.03;4.47;;;16.80;99.90;;;;;;4946431;28;20457;-91
2022/06/13 06:47:43;;;;;;;5.13;3.90;;;16.80;99.90;;;;;;4939521;28;22527;-88
2022/06/13 06:50:23;;;;;;;5.90;4.37;;;16.80;99.90;;;;;;4942651;28;20456;-90
2022/06/13 06:52:49;;;;;;;4.00;3.30;;;16.90;99.90;;;;;;4930702;28;20477;-88
2022/06/13 07:00:55;;;;;;;4.97;3.27;;;16.90;99.90;;;;;;4940874;28;20441;-85
2022/06/13 07:03:20;;;;;;;6.50;4.10;;;17.00;99.90;;;;;;4935847;28;21030;-86
2022/06/13 07:05:46;;;;;;;7.23;3.90;;;17.00;99.90;;;;;;4931114;28;21048;-85
2022/06/13 07:08:14;;;;;;;7.17;3.80;;;17.00;99.90;;;;;;4946230;28;20182;-86
2022/06/13 07:10:48;;;;;;;5.00;3.50;;;17.10;99.90;;;;;;4930090;28;20741;-86
2022/06/13 07:13:14;;;;;;;5.97;3.40;;;17.10;99.90;;;;;;4936706;28;20446;-86
2022/06/13 07:15:40;;;;;;;5.90;3.17;;;17.10;99.90;;;;;;4930125;28;20457;-86
2022/06/13 07:18:06;;;;;;;5.03;3.63;;;17.20;99.90;;;;;;4941080;28;20496;-86
2022/06/13 07:20:36;;;;;;;8.20;4.07;;;17.30;99.90;;;;;;4948530;28;20201;-85
2022/06/13 07:23:04;;;;;;;5.50;4.00;;;17.30;99.90;;;;;;4957265;28;20855;-86
2022/06/13 07:25:31;;;;;;;6.37;3.70;;;17.30;99.90;;;;;;4934647;28;20520;-85
2022/06/13 07:27:57;;;;;;;7.53;3.87;;;17.30;99.90;;;;;;4933717;28;20449;-87
2022/06/13 07:30:29;;;;;;;6.23;4.07;;;17.40;99.90;;;;;;4952557;28;20517;-87
2022/06/13 07:32:57;;;;;;;5.53;3.43;;;17.50;99.90;;;;;;4938342;28;22118;-86
2022/06/13 07:35:24;;;;;;;7.30;4.03;;;17.50;99.90;;;;;;4930878;28;20484;-86
2022/06/13 07:40:36;;;;;;;3.87;3.23;;;17.70;99.90;;;;;;4933915;28;20551;-85
2022/06/13 07:43:36;;;;;;;7.00;4.10;;;17.90;99.90;;;;;;4932455;28;20655;-87
2022/06/13 07:46:04;;;;;;;4.23;3.60;;;17.90;99.90;;;;;;4951890;28;22287;-86
2022/06/13 07:48:31;;;;;;;3.70;3.40;;;18.10;99.90;;;;;;4933936;28;20934;-86
2022/06/13 07:50:57;;;;;;;6.53;3.70;;;18.30;99.90;;;;;;4930982;28;20859;-85
2022/06/13 07:53:23;;;;;;;7.67;3.73;;;18.40;99.90;;;;;;4935191;28;20635;-86
2022/06/13 07:55:49;;;;;;;5.73;3.30;;;18.30;99.90;;;;;;4946982;28;21080;-86
2022/06/13 07:58:19;;;;;;;6.50;3.60;;;18.40;99.90;;;;;;4952112;28;20465;-91
2022/06/13 08:00:48;;;;;;;7.80;3.60;;;18.70;99.90;;;;;;4948610;28;20520;-88
2022/06/13 08:03:23;;;;;;;5.90;3.43;;;19.00;99.90;;;;;;4949029;28;21015;-87
2022/06/13 08:05:50;;;;;;;6.77;3.60;;;19.20;99.90;;;;;;4930956;28;20835;-87
2022/06/13 08:08:17;;;;;;;6.23;3.50;;;19.30;99.90;;;;;;4931853;28;20433;-87
2022/06/13 08:10:42;;;;;;;10.00;3.70;;;19.20;99.90;;;;;;4930700;28;21144;-88
2022/06/13 08:13:12;;;;;;;7.20;3.60;;;18.90;99.90;;;;;;4940962;28;21593;-87
2022/06/13 08:15:38;;;;;;;6.53;3.80;;;18.90;99.90;;;;;;4933381;28;20557;-87
2022/06/13 08:18:04;;;;;;;6.07;3.90;;;19.00;99.90;;;;;;4934740;28;21021;-87
2022/06/13 08:20:30;;;;;;;8.17;3.83;;;18.90;99.90;;;;;;4930784;28;20446;-87
2022/06/13 08:22:58;;;;;;;3.70;3.03;;;19.00;99.90;;;;;;4930537;28;20453;-87
2022/06/13 08:25:30;;;;;;;5.33;4.00;;;19.00;99.90;;;;;;4953463;28;20269;-86
2022/06/13 08:27:57;;;;;;;4.40;3.30;;;19.20;99.90;;;;;;4931601;28;20456;-87
2022/06/13 08:30:24;;;;;;;4.10;3.10;;;19.30;99.90;;;;;;4929390;28;20442;-87
2022/06/13 08:32:50;;;;;;;4.33;3.70;;;19.50;99.90;;;;;;4928981;28;20438;-86
2022/06/13 08:35:16;;;;;;;6.37;3.50;;;20.00;99.90;;;;;;4933985;28;20458;-87
2022/06/13 08:37:42;;;;;;;4.20;3.30;;;19.90;98.60;;;;;;4925282;28;20771;-87
2022/06/13 08:40:09;;;;;;;5.87;3.73;;;20.00;98.50;;;;;;4934807;28;20438;-87
2022/06/13 08:43:09;;;;;;;3.43;3.13;;;20.20;99.90;;;;;;4935366;28;20191;-87
2022/06/13 08:45:42;;;;;;;6.17;3.50;;;20.40;96.80;;;;;;4953934;28;20469;-87
2022/06/13 08:48:29;;;;;;;5.90;4.60;;;19.80;97.20;;;;;;4950279;28;20453;-86
2022/06/13 08:51:07;;;;;;;6.67;3.97;;;19.50;97.90;;;;;;4934886;28;21370;-87
2022/06/13 08:53:43;;;;;;;4.20;3.80;;;19.30;98.00;;;;;;4953595;28;20455;-87
2022/06/13 08:56:12;;;;;;;4.90;3.60;;;18.90;98.30;;;;;;4949004;28;20448;-86
2022/06/13 08:58:53;;;;;;;4.00;3.60;;;19.00;99.20;;;;;;4942711;28;20817;-87
2022/06/13 09:01:40;;;;;;;6.20;3.80;;;19.10;99.90;;;;;;4942546;28;20508;-87
2022/06/13 09:04:19;;;;;;;7.37;3.90;;;20.00;99.90;;;;;;4938129;28;20607;-87
2022/06/13 09:06:59;;;;;;;6.03;4.27;;;20.50;97.20;;;;;;4935877;28;21037;-87
2022/06/13 09:09:33;;;;;;;3.73;3.07;;;20.40;96.10;;;;;;4935160;28;20671;-86
2022/06/13 09:12:11;;;;;;;5.17;3.13;;;20.10;96.70;;;;;;4932609;28;20763;-87
2022/06/13 09:15:07;;;;;;;5.03;3.27;;;19.80;96.70;;;;;;4933668;28;20445;-86
2022/06/13 09:17:39;;;;;;;4.83;3.30;;;20.10;97.00;;;;;;4939347;28;21086;-87
2022/06/13 09:20:14;;;;;;;3.93;3.10;;;20.10;96.30;;;;;;4952995;28;20442;-87
2022/06/13 09:22:55;;;;;;;5.77;3.17;;;20.00;96.20;;;;;;4952109;28;20445;-86
2022/06/13 09:25:38;;;;;;;9.20;3.60;;;20.80;97.70;;;;;;4937800;28;20970;-87
2022/06/13 09:28:22;;;;;;;5.40;3.50;;;21.00;94.70;;;;;;4951780;28;20441;-87
2022/06/13 09:31:13;;;;;;;7.40;3.80;;;21.20;94.70;;;;;;4956567;28;20456;-87
2022/06/13 09:33:52;;;;;;;4.40;3.60;;;20.90;94.90;;;;;;4936165;28;20450;-87
2022/06/13 09:36:29;;;;;;;4.37;3.57;;;20.30;95.60;;;;;;4946262;28;20449;-86
2022/06/13 09:39:00;;;;;;;5.47;2.80;;;20.30;96.00;;;;;;4948802;28;20663;-87
2022/06/13 09:41:35;;;;;;;4.70;3.40;;;20.80;96.00;;;;;;4929178;28;20437;-87
2022/06/13 09:44:37;;;;;;;4.07;3.30;;;21.50;96.80;;;;;;4937665;28;20477;-86
2022/06/13 09:47:41;;;;;;;6.67;3.57;;;21.80;93.80;;;;;;4936965;28;20477;-87
2022/06/13 09:50:32;;;;;;;5.33;2.93;;;21.40;93.80;;;;;;4934810;28;20459;-87
2022/06/13 09:53:06;;;;;;;4.93;3.27;;;20.60;94.00;;;;;;4954936;28;20456;-87
2022/06/13 09:55:59;;;;;;;5.30;3.63;;;20.00;93.90;;;;;;4934249;28;20446;-87
2022/06/13 09:58:46;;;;;;;4.83;2.97;;;20.40;94.60;;;;;;4926429;28;20445;-87
2022/06/13 10:01:43;;;;;;;6.00;3.37;;;20.70;93.90;;;;;;4932433;28;20449;-88
2022/06/13 10:04:38;;;;;;;4.50;2.80;;;20.80;92.60;;;;;;4932437;28;20512;-87
2022/06/13 10:07:12;;;;;;;5.60;3.00;;;20.80;93.60;;;;;;4952179;28;20469;-87
2022/06/13 10:10:03;;;;;;;3.50;2.67;;;21.00;90.80;;;;;;4936276;28;20536;-86
2022/06/13 10:12:37;;;;;;;5.13;3.40;;;21.20;91.90;;;;;;4949039;28;20456;-88
2022/06/13 10:15:28;;;;;;;3.73;3.33;;;21.30;92.30;;;;;;4954817;28;20948;-87
2022/06/13 10:18:27;;;;;;;3.30;2.50;;;21.50;93.10;;;;;;4947192;28;20460;-87
2022/06/13 10:21:00;;;;;;;4.27;3.03;;;21.60;91.50;;;;;;4935939;28;20544;-87
2022/06/13 10:23:31;;;;;;;4.40;3.07;;;21.30;91.30;;;;;;4932188;28;21039;-87
2022/06/13 10:26:32;;;;;;;2.90;2.60;;;21.00;91.40;;;;;;4952645;28;20541;-87
2022/06/13 10:29:04;;;;;;;3.50;2.67;;;21.30;91.10;;;;;;4899356;28;20507;-87
2022/06/13 10:31:52;;;;;;;4.30;2.77;;;21.10;89.20;;;;;;4961963;28;20450;-87
2022/06/13 10:34:45;;;;;;;4.23;2.67;;;20.90;90.30;;;;;;4953476;28;20457;-86
2022/06/13 10:37:18;;;;;;;3.47;2.60;;;21.20;87.70;;;;;;4935485;28;20682;-87
2022/06/13 10:39:46;;;;;;;6.70;2.80;;;21.40;90.60;;;;;;4951361;28;20448;-87
2022/06/13 10:42:19;;;;;;;5.53;2.90;;;21.70;87.20;;;;;;4951387;28;20446;-87
2022/06/13 10:44:45;;;;;;;2.90;2.57;;;21.80;87.20;;;;;;4963696;28;20535;-87
2022/06/13 10:47:20;;;;;;;3.13;2.40;;;21.80;85.90;;;;;;4942397;28;20876;-86
2022/06/13 10:49:51;;;;;;;3.40;2.47;;;21.70;84.30;;;;;;4936850;28;21064;-87
2022/06/13 10:52:21;;;;;;;3.13;2.43;;;21.60;84.90;;;;;;4932838;28;20453;-88
2022/06/13 10:54:54;;;;;;;4.10;2.50;;;21.40;87.60;;;;;;4923817;28;20882;-86
2022/06/13 10:57:26;;;;;;;3.07;1.93;;;21.70;86.00;;;;;;4927188;28;20441;-87
2022/06/13 11:00:28;;;;;;;2.17;1.83;;;21.80;84.30;;;;;;4952849;28;21630;-88
2022/06/13 11:03:12;;;;;;;2.37;1.77;;;21.80;77.50;;;;;;4897782;28;20442;-87
2022/06/13 11:05:55;;;;;;;3.60;1.70;;;21.80;80.20;;;;;;4945979;28;20469;-86
2022/06/13 11:08:21;;;;;;;4.20;1.97;;;22.00;78.20;;;;;;4925715;28;20469;-87
2022/06/13 11:10:56;;;;;;;2.67;2.10;;;22.30;79.20;;;;;;4945037;28;20434;-86
2022/06/13 11:13:41;;;;;;;2.20;1.97;;;22.70;76.60;;;;;;4935343;28;21011;-85
2022/06/13 11:22:52;;;;;;;4.53;2.30;;;23.60;84.50;;;;;;4938354;28;20496;-85
2022/06/13 11:25:28;;;;;;;2.80;2.20;;;23.40;78.70;;;;;;4933277;28;20888;-85
2022/06/13 11:28:08;;;;;;;4.83;2.50;;;23.10;79.70;;;;;;4950946;28;20515;-85
2022/06/13 11:30:45;;;;;;;5.17;2.73;;;22.80;80.50;;;;;;4946977;28;21209;-85
2022/06/13 11:33:10;;;;;;;3.40;2.07;;;22.60;78.60;;;;;;4951763;28;20580;-85
2022/06/13 11:35:37;;;;;;;3.50;2.00;;;22.40;79.50;;;;;;4933980;28;20856;-84
2022/06/13 11:38:31;;;;;;;3.63;2.07;;;22.50;77.70;;;;;;4931218;28;20217;-84
2022/06/13 11:41:04;;;;;;;2.33;2.23;;;22.30;78.90;;;;;;4929657;28;21363;-84
2022/06/13 11:43:35;;;;;;;4.10;2.30;;;22.50;81.90;;;;;;4933834;28;20970;-84
2022/06/13 11:46:06;;;;;;;2.37;2.00;;;23.20;83.20;;;;;;4938556;28;20485;-85
2022/06/13 11:48:31;;;;;;;3.70;2.17;;;23.00;75.20;;;;;;4932635;28;20882;-85
2022/06/13 11:51:02;;;;;;;2.43;2.23;;;23.00;78.40;;;;;;4936980;28;20453;-84
2022/06/13 11:53:38;;;;;;;3.30;2.40;;;22.80;75.10;;;;;;4933612;28;20194;-85
2022/06/13 11:56:22;;;;;;;4.07;2.10;;;22.70;80.20;;;;;;4934932;28;21847;-84
2022/06/13 11:58:51;;;;;;;2.70;2.43;;;22.20;79.20;;;;;;4934222;28;20525;-85
2022/06/13 12:01:30;;;;;;;2.77;2.07;;;22.70;80.00;;;;;;4935254;28;20801;-84
2022/06/13 12:04:15;;;;;;;3.93;2.40;;;23.10;79.70;;;;;;4944065;28;20477;-85
2022/06/13 12:06:56;;;;;;;4.57;2.90;;;24.20;80.20;;;;;;4947426;28;20489;-86
2022/06/13 12:09:33;;;;;;;4.87;1.97;;;23.30;71.60;;;;;;4928251;28;20492;-85
2022/06/13 12:12:04;;;;;;;3.37;2.20;;;22.70;72.90;;;;;;4924139;28;20524;-83
2022/06/13 12:14:40;;;;;;;4.73;2.50;;;22.60;74.20;;;;;;4927708;28;20441;-87
2022/06/13 12:17:30;;;;;;;2.70;2.47;;;22.50;75.10;;;;;;4952542;28;20616;-87
2022/06/13 12:20:04;;;;;;;2.97;2.77;;;22.20;74.30;;;;;;4944674;28;20461;-87
2022/06/13 12:22:46;;;;;;;3.20;2.30;;;22.10;75.60;;;;;;4937152;28;20445;-87
2022/06/13 12:25:19;;;;;;;2.60;2.37;;;22.70;77.60;;;;;;4942958;28;20449;-88
2022/06/13 12:28:06;;;;;;;4.97;2.00;;;23.40;81.50;;;;;;4950280;28;20449;-88
2022/06/13 12:30:31;;;;;;;1.90;1.80;;;23.90;70.60;;;;;;4959311;28;20536;-88
2022/06/13 12:33:17;;;;;;;4.37;2.20;;;24.00;71.80;;;;;;4946647;28;20453;-88
2022/06/13 12:36:00;;;;;;;4.90;2.50;;;24.40;70.20;;;;;;4964308;28;20657;-88
2022/06/13 12:38:59;;;;;;;2.60;2.10;;;24.80;74.90;;;;;;4940867;28;20805;-88
2022/06/13 12:41:59;;;;;;;3.90;2.30;;;24.90;70.70;;;;;;4935569;28;21044;-88
2022/06/13 12:45:03;;;;;;;3.00;2.70;;;25.20;71.90;;;;;;4958686;28;20559;-87
2022/06/13 12:47:53;;;;;;;5.70;2.23;;;24.20;68.80;;;;;;4942442;28;20484;-88
2022/06/13 12:50:43;;;;;;;6.03;2.37;;;23.80;70.40;;;;;;4956475;28;20465;-88
2022/06/13 12:53:42;;;;;;;4.50;2.43;;;23.70;73.00;;;;;;4958083;28;20457;-88
2022/06/13 12:56:27;;;;;;;3.63;2.27;;;24.10;77.10;;;;;;4957407;28;20445;-88
2022/06/13 12:59:15;;;;;;;3.53;2.43;;;24.70;76.90;;;;;;4945715;28;20466;-87
2022/06/13 13:01:51;;;;;;;2.53;2.23;;;24.80;73.40;;;;;;4943314;28;21023;-88
2022/06/13 13:04:32;;;;;;;4.00;2.53;;;25.00;74.80;;;;;;4941716;28;20557;-88
2022/06/13 13:07:21;;;;;;;2.27;2.07;;;25.40;67.50;;;;;;4945456;28;20484;-88
2022/06/13 13:10:02;;;;;;;2.40;2.20;;;25.30;69.80;;;;;;4957498;28;20441;-89
2022/06/13 13:12:47;;;;;;;2.63;2.07;;;25.20;64.70;;;;;;4939845;28;20449;-88
2022/06/13 13:15:36;;;;;;;1.97;1.77;;;24.50;65.80;;;;;;4957310;28;20458;-87
2022/06/13 13:18:01;;;;;;;2.57;2.00;;;24.20;75.40;;;;;;4951367;28;20444;-88
2022/06/13 13:20:30;;;;;;;2.10;1.90;;;25.20;72.80;;;;;;4947879;28;20453;-88
2022/06/13 13:23:04;;;;;;;4.40;1.90;;;25.80;70.50;;;;;;4943227;28;20698;-88
2022/06/13 13:25:47;;;;;;;3.50;2.27;;;25.80;65.50;;;;;;4956405;28;20897;-87
2022/06/13 13:28:44;;;;;;;3.20;2.53;;;25.80;67.20;;;;;;4954372;28;20762;-89
2022/06/13 13:31:54;;;;;;;4.50;2.30;;;25.90;64.70;;;;;;4948651;28;20445;-88
2022/06/13 13:34:44;;;;;;;4.70;1.93;;;25.60;65.40;;;;;;4938788;28;20455;-88
2022/06/13 13:37:39;;;;;;;2.50;2.20;;;25.50;67.50;;;;;;4935726;28;20461;-88
2022/06/13 13:40:16;;;;;;;5.30;1.97;;;26.00;69.60;;;;;;4956364;28;20433;-88
2022/06/13 13:42:53;;;;;;;2.60;2.40;;;26.60;64.30;;;;;;4941694;28;20536;-87
2022/06/13 13:45:27;;;;;;;2.20;2.00;;;26.10;63.00;;;;;;4939649;28;20449;-89
2022/06/13 13:48:05;;;;;;;2.83;2.33;;;26.00;63.80;;;;;;4954725;28;20483;-88
2022/06/13 13:50:34;;;;;;;2.97;2.37;;;25.30;64.30;;;;;;4936050;28;20477;-88
2022/06/13 13:53:08;;;;;;;2.77;1.80;;;26.80;63.70;;;;;;4954144;28;20803;-88
2022/06/13 13:55:41;;;;;;;2.73;2.07;;;27.20;62.90;;;;;;4938393;28;20879;-89